createdAt,value
2023-02-20T00:01:12.459Z,93.60
2023-02-20T00:03:40.367Z,93.62
2023-02-20T00:06:08.547Z,93.30
2023-02-20T00:08:36.922Z,93.13
2023-02-20T00:11:05.302Z,93.26
2023-02-20T00:13:33.184Z,93.50
2023-02-20T00:16:01.265Z,93.40
2023-02-20T00:18:29.205Z,93.58
2023-02-20T00:20:57.076Z,93.57
2023-02-20T00:23:25.011Z,93.62
2023-02-20T00:25:52.915Z,93.62
2023-02-20T00:28:20.779Z,93.91
2023-02-20T00:30:48.738Z,93.75
2023-02-20T00:33:16.715Z,93.68
2023-02-20T00:35:44.683Z,93.87
2023-02-20T00:38:12.630Z,93.71
2023-02-20T00:40:40.521Z,93.88
2023-02-20T00:43:08.422Z,93.77
2023-02-20T00:45:36.323Z,93.67
2023-02-20T00:48:04.630Z,93.82
2023-02-20T00:50:32.518Z,93.84
2023-02-20T00:53:00.420Z,93.80
2023-02-20T00:55:28.392Z,93.72
2023-02-20T00:57:56.286Z,93.78
2023-02-20T01:00:29.567Z,93.74
2023-02-20T01:02:57.528Z,93.75
2023-02-20T01:05:25.495Z,93.83
2023-02-20T01:07:54.450Z,93.88
2023-02-20T01:10:22.400Z,93.89
2023-02-20T01:12:50.301Z,93.92
2023-02-20T01:15:18.324Z,93.85
2023-02-20T01:17:46.995Z,93.84
2023-02-20T01:20:14.997Z,93.92
2023-02-20T01:22:43.318Z,94.01
2023-02-20T01:25:11.671Z,93.86
2023-02-20T01:27:39.571Z,93.93
2023-02-20T01:30:14.289Z,94.00
2023-02-20T01:32:48.985Z,94.15
2023-02-20T01:35:22.867Z,94.26
2023-02-20T01:37:56.025Z,94.06
2023-02-20T01:40:29.464Z,93.92
2023-02-20T01:42:57.414Z,94.01
2023-02-20T01:45:25.331Z,94.16
2023-02-20T01:47:56.938Z,94.38
2023-02-20T01:50:33.999Z,94.32
2023-02-20T01:53:14.734Z,94.07
2023-02-20T01:55:54.372Z,94.25
2023-02-20T01:59:10.413Z,94.09
2023-02-20T02:01:38.866Z,94.18
2023-02-20T02:04:13.488Z,94.35
2023-02-20T02:06:50.367Z,94.30
2023-02-20T02:09:37.275Z,94.72
2023-02-20T02:12:05.886Z,94.66
2023-02-20T02:14:33.830Z,94.79
2023-02-20T02:17:21.512Z,94.77
2023-02-20T02:20:12.464Z,94.72
2023-02-20T02:22:55.884Z,94.78
2023-02-20T02:25:49.257Z,94.50
2023-02-20T02:28:36.746Z,94.61
2023-02-20T02:31:18.194Z,94.44
2023-02-20T02:34:21.681Z,94.52
2023-02-20T02:37:08.563Z,94.57
2023-02-20T02:39:36.536Z,94.80
2023-02-20T02:42:07.399Z,94.61
2023-02-20T02:44:38.358Z,94.78
2023-02-20T02:47:15.195Z,94.70
2023-02-20T02:49:52.670Z,94.65
2023-02-20T02:52:40.657Z,94.73
2023-02-20T02:55:11.370Z,94.54
2023-02-20T02:57:39.286Z,94.43
2023-02-20T03:00:10.968Z,94.40
2023-02-20T03:03:12.414Z,94.56
2023-02-20T03:05:47.539Z,94.57
2023-02-20T03:08:32.845Z,94.32
2023-02-20T03:11:08.577Z,94.53
2023-02-20T03:14:01.274Z,94.43
2023-02-20T03:16:52.298Z,94.27
2023-02-20T03:19:28.486Z,94.06
2023-02-20T03:21:58.415Z,94.28
2023-02-20T03:24:29.191Z,94.56
2023-02-20T03:27:01.838Z,94.55
2023-02-20T03:29:37.687Z,94.41
2023-02-20T03:32:29.981Z,93.93
2023-02-20T03:35:19.418Z,94.26
2023-02-20T03:38:07.668Z,94.41
2023-02-20T03:40:56.467Z,94.53
2023-02-20T03:43:33.084Z,94.49
2023-02-20T03:46:07.374Z,94.35
2023-02-20T03:48:44.637Z,94.50
2023-02-20T03:51:13.321Z,94.49
2023-02-20T03:53:49.708Z,94.43
2023-02-20T03:56:25.681Z,94.62
2023-02-20T03:59:02.763Z,94.70
2023-02-20T04:01:33.531Z,94.64
2023-02-20T04:04:03.535Z,94.55
2023-02-20T04:06:34.860Z,94.27
2023-02-20T04:09:22.694Z,94.60
2023-02-20T04:12:06.858Z,94.55
2023-02-20T04:14:36.620Z,94.39
2023-02-20T04:17:15.198Z,94.63
2023-02-20T04:19:43.994Z,94.48
2023-02-20T04:22:19.421Z,94.39
2023-02-20T04:24:59.885Z,94.30
2023-02-20T04:27:29.806Z,94.31
2023-02-20T04:30:06.140Z,94.59
2023-02-20T04:32:41.927Z,94.49
2023-02-20T04:35:18.377Z,94.55
2023-02-20T04:37:51.439Z,94.24
2023-02-20T04:40:25.090Z,94.14
2023-02-20T04:42:57.692Z,94.30
2023-02-20T04:45:26.059Z,94.29
2023-02-20T04:47:54.743Z,94.46
2023-02-20T04:50:32.959Z,94.32
2023-02-20T04:53:09.209Z,93.97
2023-02-20T04:56:25.508Z,94.06
2023-02-20T04:59:02.419Z,94.10
2023-02-20T05:01:36.371Z,94.05
2023-02-20T05:04:09.865Z,94.18
2023-02-20T05:06:49.366Z,94.29
2023-02-20T05:09:23.403Z,94.07
2023-02-20T05:11:59.339Z,94.13
2023-02-20T05:14:31.782Z,94.28
2023-02-20T05:17:04.269Z,94.39
2023-02-20T05:19:39.006Z,94.43
2023-02-20T05:22:21.824Z,94.14
2023-02-20T05:24:59.740Z,94.19
2023-02-20T05:27:28.252Z,94.37
2023-02-20T05:29:58.128Z,94.22
2023-02-20T05:32:28.786Z,94.46
2023-02-20T05:35:02.208Z,94.71
2023-02-20T05:37:31.662Z,94.54
2023-02-20T05:40:07.005Z,94.64
2023-02-20T05:42:41.578Z,94.52
2023-02-20T05:45:15.459Z,94.51
2023-02-20T05:47:47.947Z,94.56
2023-02-20T05:50:21.412Z,94.73
2023-02-20T05:52:57.145Z,94.62
2023-02-20T05:55:31.056Z,94.68
2023-02-20T05:58:16.866Z,94.61
2023-02-20T06:01:04.728Z,94.64
2023-02-20T06:03:54.422Z,94.66
2023-02-20T06:06:36.830Z,94.91
2023-02-20T06:09:08.072Z,94.81
2023-02-20T06:11:36.407Z,94.90
2023-02-20T06:14:06.245Z,94.63
2023-02-20T06:16:35.730Z,94.62
2023-02-20T06:19:09.278Z,94.44
2023-02-20T06:21:46.881Z,94.25
2023-02-20T06:24:15.942Z,94.25
2023-02-20T06:26:44.420Z,93.99
2023-02-20T06:29:14.391Z,93.76
2023-02-20T06:31:42.677Z,94.01
2023-02-20T06:34:18.496Z,93.42
2023-02-20T06:36:46.569Z,93.58
2023-02-20T06:39:22.650Z,93.59
2023-02-20T06:41:50.654Z,93.38
2023-02-20T06:44:18.957Z,93.29
2023-02-20T06:46:48.370Z,92.93
2023-02-20T06:49:16.666Z,93.09
2023-02-20T06:51:44.775Z,92.48
2023-02-20T06:54:13.410Z,92.42
2023-02-20T06:56:41.462Z,92.64
2023-02-20T06:59:09.547Z,91.97
2023-02-20T07:01:41.187Z,91.40
2023-02-20T07:04:20.956Z,91.01
2023-02-20T07:06:49.923Z,90.99
2023-02-20T07:09:20.278Z,91.03
2023-02-20T07:11:56.533Z,90.85
2023-02-20T07:14:25.022Z,90.82
2023-02-20T07:16:53.002Z,89.98
2023-02-20T07:19:20.906Z,90.42
2023-02-20T07:21:48.968Z,89.69
2023-02-20T07:24:17.104Z,88.70
2023-02-20T07:26:45.111Z,88.73
2023-02-20T07:29:14.051Z,88.75
2023-02-20T07:31:42.359Z,88.50
2023-02-20T07:34:10.876Z,88.07
2023-02-20T07:36:39.305Z,88.27
2023-02-20T07:39:07.190Z,87.86
2023-02-20T07:41:36.108Z,88.06
2023-02-20T07:44:06.780Z,87.83
2023-02-20T07:46:34.818Z,87.32
2023-02-20T07:49:04.564Z,87.41
2023-02-20T07:51:32.987Z,87.68
2023-02-20T07:54:01.532Z,88.02
2023-02-20T07:56:30.089Z,87.48
2023-02-20T07:59:00.758Z,87.23
2023-02-20T08:01:30.076Z,87.16
2023-02-20T08:03:58.069Z,86.73
2023-02-20T08:06:26.046Z,87.58
2023-02-20T08:08:53.980Z,87.36
2023-02-20T08:11:23.601Z,87.23
2023-02-20T08:13:51.829Z,86.77
2023-02-20T08:16:19.799Z,86.11
2023-02-20T08:18:47.821Z,86.30
2023-02-20T08:21:15.706Z,86.16
2023-02-20T08:23:43.680Z,86.23
2023-02-20T08:26:12.547Z,86.37
2023-02-20T08:28:40.799Z,85.74
2023-02-20T08:31:08.850Z,86.12
2023-02-20T08:33:37.229Z,86.24
2023-02-20T08:36:06.045Z,86.06
2023-02-20T08:38:37.774Z,85.82
2023-02-20T08:41:11.465Z,85.52
2023-02-20T08:43:41.328Z,86.13
2023-02-20T08:46:09.404Z,86.59
2023-02-20T08:48:37.998Z,86.67
2023-02-20T08:51:07.112Z,86.56
2023-02-20T08:53:37.820Z,86.24
2023-02-20T08:56:09.895Z,86.37
2023-02-20T08:58:37.899Z,86.38
2023-02-20T09:01:06.247Z,86.39
2023-02-20T09:03:38.633Z,85.70
2023-02-20T09:06:06.925Z,85.66
2023-02-20T09:08:34.958Z,85.89
2023-02-20T09:11:03.139Z,85.58
2023-02-20T09:13:31.341Z,85.22
2023-02-20T09:15:59.274Z,85.37
2023-02-20T09:18:27.188Z,85.39
2023-02-20T09:20:55.217Z,85.48
2023-02-20T09:23:25.770Z,85.09
2023-02-20T09:25:53.910Z,84.99
2023-02-20T09:28:21.869Z,84.89
2023-02-20T09:30:49.848Z,84.96
2023-02-20T09:33:17.819Z,85.22
2023-02-20T09:35:45.743Z,84.58
2023-02-20T09:38:13.696Z,84.35
2023-02-20T09:40:42.075Z,84.32
2023-02-20T09:43:28.004Z,84.46
2023-02-20T09:46:09.605Z,84.74
2023-02-20T09:48:50.642Z,84.27
2023-02-20T09:51:25.058Z,83.82
2023-02-20T09:54:11.112Z,84.28
2023-02-20T09:56:42.893Z,84.79
2023-02-20T09:59:17.780Z,84.92
2023-02-20T10:02:20.622Z,84.89
2023-02-20T10:05:01.699Z,84.20
2023-02-20T10:07:43.086Z,83.48
2023-02-20T10:10:19.363Z,84.03
2023-02-20T10:13:06.206Z,83.89
2023-02-20T10:16:14.803Z,83.23
2023-02-20T10:19:04.541Z,83.66
2023-02-20T10:21:50.811Z,84.16
2023-02-20T10:24:24.393Z,84.45
2023-02-20T10:26:59.712Z,84.60
2023-02-20T10:29:31.941Z,83.93
2023-02-20T10:32:15.552Z,84.07
2023-02-20T10:34:54.454Z,84.45
2023-02-20T10:37:29.592Z,84.63
2023-02-20T10:40:17.090Z,84.19
2023-02-20T10:42:54.423Z,83.79
2023-02-20T10:45:44.113Z,83.90
2023-02-20T10:48:15.694Z,83.70
2023-02-20T10:50:46.536Z,83.60
2023-02-20T10:53:19.981Z,83.49
2023-02-20T10:56:01.370Z,84.24
2023-02-20T10:58:37.005Z,83.88
2023-02-20T11:01:11.466Z,83.61
2023-02-20T11:03:45.368Z,83.39
2023-02-20T11:06:17.308Z,83.60
2023-02-20T11:08:45.711Z,83.86
2023-02-20T11:11:19.565Z,83.45
2023-02-20T11:13:47.570Z,83.10
2023-02-20T11:16:58.752Z,82.85
2023-02-20T11:19:33.088Z,82.93
2023-02-20T11:22:00.998Z,83.13
2023-02-20T11:24:30.523Z,82.98
2023-02-20T11:27:21.975Z,82.67
2023-02-20T11:30:01.374Z,83.16
2023-02-20T11:32:37.635Z,83.26
2023-02-20T11:35:20.697Z,82.42
2023-02-20T11:38:23.309Z,82.09
2023-02-20T11:40:54.932Z,82.09
2023-02-20T11:43:28.124Z,82.37
2023-02-20T11:46:16.175Z,82.69
2023-02-20T11:49:13.227Z,82.45
2023-02-20T11:51:43.716Z,83.04
2023-02-20T11:54:24.315Z,82.76
2023-02-20T11:56:55.235Z,82.81
2023-02-20T11:59:39.669Z,82.72
2023-02-20T12:02:15.506Z,83.02
2023-02-20T12:05:07.280Z,83.07
2023-02-20T12:07:36.817Z,83.32
2023-02-20T12:10:16.443Z,83.15
2023-02-20T12:12:44.421Z,82.65
2023-02-20T12:15:15.065Z,83.45
2023-02-20T12:18:04.410Z,83.70
2023-02-20T12:20:45.522Z,83.39
2023-02-20T12:23:50.139Z,83.33
2023-02-20T12:26:34.571Z,83.85
2023-02-20T12:29:16.918Z,83.44
2023-02-20T12:32:10.608Z,83.76
2023-02-20T12:34:54.489Z,84.12
2023-02-20T12:37:42.965Z,84.03
2023-02-20T12:40:20.204Z,83.38
2023-02-20T12:43:01.537Z,83.52
2023-02-20T12:46:00.591Z,84.28
2023-02-20T12:48:55.028Z,83.67
2023-02-20T12:51:25.974Z,83.06
2023-02-20T12:53:59.976Z,82.73
2023-02-20T12:57:00.406Z,83.36
2023-02-20T12:59:35.759Z,82.65
2023-02-20T13:02:23.613Z,82.41
2023-02-20T13:05:00.358Z,81.94
2023-02-20T13:07:35.141Z,81.52
2023-02-20T13:10:12.904Z,81.14
2023-02-20T13:12:40.862Z,80.87
2023-02-20T13:15:32.782Z,80.82
2023-02-20T13:18:17.634Z,81.10
2023-02-20T13:20:57.432Z,80.70
2023-02-20T13:23:30.618Z,80.48
2023-02-20T13:25:58.666Z,80.00
2023-02-20T13:28:45.917Z,79.92
2023-02-20T13:31:17.893Z,80.02
2023-02-20T13:33:49.334Z,79.33
2023-02-20T13:36:37.817Z,78.77
2023-02-20T13:39:42.851Z,78.68
2023-02-20T13:42:31.804Z,79.51
2023-02-20T13:45:00.686Z,78.72
2023-02-20T13:47:38.205Z,78.97
2023-02-20T13:50:30.756Z,78.28
2023-02-20T13:53:02.089Z,78.57
2023-02-20T13:55:30.955Z,78.52
2023-02-20T13:58:06.383Z,77.93
2023-02-20T14:00:37.373Z,78.07
2023-02-20T14:03:23.677Z,78.00
2023-02-20T14:10:29.900Z,77.86
2023-02-20T14:13:04.703Z,77.52
2023-02-20T14:15:34.715Z,77.69
2023-02-20T14:18:02.691Z,77.99
2023-02-20T14:20:37.152Z,77.66
2023-02-20T14:23:18.032Z,77.72
2023-02-20T14:26:12.839Z,78.08
2023-02-20T14:28:46.177Z,78.11
2023-02-20T14:36:13.146Z,77.93
2023-02-20T14:39:06.165Z,78.66
2023-02-20T14:46:32.547Z,78.56
2023-02-20T14:49:16.163Z,78.53
2023-02-20T14:51:44.757Z,79.04
2023-02-20T14:54:21.338Z,79.02
2023-02-20T14:56:51.057Z,78.70
2023-02-20T14:59:27.933Z,78.65
2023-02-20T15:01:59.116Z,79.13
2023-02-20T15:04:28.465Z,79.04
2023-02-20T15:07:05.026Z,78.69
2023-02-20T15:09:45.305Z,78.40
2023-02-20T15:12:41.164Z,78.31
2023-02-20T15:15:13.347Z,78.61
2023-02-20T15:17:43.521Z,78.34
2023-02-20T15:20:33.096Z,77.73
2023-02-20T15:23:16.337Z,77.62
2023-02-20T15:25:45.226Z,78.05
2023-02-20T15:28:25.495Z,78.21
2023-02-20T15:31:00.592Z,77.53
2023-02-20T15:33:30.498Z,77.16
2023-02-20T15:35:59.021Z,77.35
2023-02-20T15:38:33.461Z,77.36
2023-02-20T15:41:03.870Z,77.34
2023-02-20T15:43:51.127Z,76.82
2023-02-20T15:46:21.595Z,76.50
2023-02-20T15:48:49.828Z,76.60
2023-02-20T15:51:23.221Z,76.86
2023-02-20T15:53:53.588Z,76.30
2023-02-20T15:56:21.745Z,75.68
2023-02-20T15:58:50.816Z,75.72
2023-02-20T16:01:18.850Z,75.40
2023-02-20T16:03:53.033Z,76.12
2023-02-20T16:06:22.722Z,75.93
2023-02-20T16:08:52.426Z,75.40
2023-02-20T16:11:23.651Z,75.29
2023-02-20T16:14:00.751Z,75.38
2023-02-20T16:16:35.972Z,75.43
2023-02-20T16:19:13.415Z,75.38
2023-02-20T16:21:50.042Z,74.98
2023-02-20T16:24:26.150Z,74.73
2023-02-20T16:26:54.451Z,74.95
2023-02-20T16:29:31.114Z,75.00
2023-02-20T16:32:02.510Z,75.48
2023-02-20T16:34:33.291Z,74.98
2023-02-20T16:37:02.028Z,74.93
2023-02-20T16:39:30.054Z,74.60
2023-02-20T16:41:59.382Z,74.94
2023-02-20T16:44:40.756Z,75.47
2023-02-20T16:47:18.238Z,74.98
2023-02-20T16:49:47.862Z,74.57
2023-02-20T16:52:19.641Z,74.50
2023-02-20T16:54:51.642Z,74.41
2023-02-20T16:57:23.664Z,75.17
2023-02-20T16:59:55.678Z,74.75
2023-02-20T17:02:30.197Z,74.38
2023-02-20T17:04:59.549Z,74.48
2023-02-20T17:07:27.922Z,74.52
2023-02-20T17:09:55.893Z,74.90
2023-02-20T17:12:25.915Z,74.56
2023-02-20T17:14:53.948Z,74.38
2023-02-20T17:17:22.080Z,73.95
2023-02-20T17:19:53.430Z,73.97
2023-02-20T17:22:23.575Z,74.06
2023-02-20T17:24:52.437Z,74.66
2023-02-20T17:27:20.692Z,74.29
2023-02-20T17:29:49.971Z,74.07
2023-02-20T17:32:18.648Z,73.72
2023-02-20T17:34:46.625Z,73.97
2023-02-20T17:37:14.722Z,73.75
2023-02-20T17:39:42.968Z,73.85
2023-02-20T17:42:12.520Z,73.84
2023-02-20T17:44:40.715Z,73.65
2023-02-20T17:47:11.919Z,73.35
2023-02-20T17:49:41.516Z,73.17
2023-02-20T17:52:10.774Z,72.74
2023-02-20T17:54:41.349Z,72.95
2023-02-20T17:57:09.562Z,72.68
2023-02-20T17:59:41.794Z,72.42
2023-02-20T18:02:15.034Z,72.27
2023-02-20T18:04:43.664Z,71.72
2023-02-20T18:07:13.377Z,71.35
2023-02-20T18:09:41.564Z,70.82
2023-02-20T18:12:10.832Z,70.63
2023-02-20T18:14:40.504Z,70.52
2023-02-20T18:17:09.413Z,70.66
2023-02-20T18:19:37.472Z,70.76
2023-02-20T18:22:05.476Z,70.49
2023-02-20T18:24:34.526Z,70.55
2023-02-20T18:27:02.554Z,70.73
2023-02-20T18:29:30.871Z,70.96
2023-02-20T18:31:59.227Z,70.87
2023-02-20T18:34:28.190Z,70.19
2023-02-20T18:36:56.214Z,70.45
2023-02-20T18:39:25.371Z,70.09
2023-02-20T18:41:56.018Z,70.07
2023-02-20T18:44:24.295Z,70.33
2023-02-20T18:46:52.448Z,70.38
2023-02-20T18:49:20.371Z,70.22
2023-02-20T18:51:48.454Z,70.10
2023-02-20T18:54:24.524Z,70.27
2023-02-20T18:56:53.130Z,70.27
2023-02-20T18:59:23.102Z,70.60
2023-02-20T19:01:51.529Z,70.53
2023-02-20T19:04:20.565Z,70.31
2023-02-20T19:06:50.279Z,70.09
2023-02-20T19:09:20.775Z,70.29
2023-02-20T19:11:54.553Z,70.02
2023-02-20T19:14:24.296Z,69.83
2023-02-20T19:16:58.322Z,69.94
2023-02-20T19:19:30.478Z,70.01
2023-02-20T19:21:59.256Z,70.20
2023-02-20T19:24:27.200Z,70.58
2023-02-20T19:26:55.157Z,70.23
2023-02-20T19:29:23.147Z,70.31
2023-02-20T19:31:51.329Z,70.12
2023-02-20T19:34:19.426Z,70.14
2023-02-20T19:36:52.077Z,70.09
2023-02-20T19:39:20.038Z,70.23
2023-02-20T19:41:51.647Z,70.19
2023-02-20T19:44:19.821Z,70.29
2023-02-20T19:46:51.032Z,70.70
2023-02-20T19:49:19.559Z,70.81
2023-02-20T19:51:49.265Z,70.52
2023-02-20T19:54:20.208Z,70.40
2023-02-20T19:56:53.507Z,70.62
2023-02-20T19:59:22.439Z,70.33
2023-02-20T20:01:53.055Z,70.67
2023-02-20T20:04:23.006Z,70.66
2023-02-20T20:06:51.315Z,70.95
2023-02-20T20:09:34.993Z,71.27
2023-02-20T20:12:27.366Z,71.17
2023-02-20T20:14:56.040Z,71.07
2023-02-20T20:17:24.650Z,71.34
2023-02-20T20:19:58.821Z,71.14
2023-02-20T20:22:31.664Z,71.14
2023-02-20T20:24:59.734Z,71.32
2023-02-20T20:27:28.224Z,71.71
2023-02-20T20:29:56.285Z,71.45
2023-02-20T20:32:24.466Z,71.45
2023-02-20T20:34:55.224Z,71.56
2023-02-20T20:37:26.039Z,71.84
2023-02-20T20:40:01.425Z,71.90
2023-02-20T20:42:29.392Z,71.56
2023-02-20T20:44:59.065Z,71.92
2023-02-20T20:47:30.278Z,72.40
2023-02-20T20:49:59.697Z,72.07
2023-02-20T20:52:28.548Z,71.99
2023-02-20T20:54:58.029Z,71.82
2023-02-20T20:57:27.954Z,71.67
2023-02-20T20:59:58.529Z,72.07
2023-02-20T21:02:27.966Z,72.56
2023-02-20T21:05:09.300Z,72.49
2023-02-20T21:07:39.567Z,72.53
2023-02-20T21:10:08.836Z,72.15
2023-02-20T21:12:37.478Z,72.11
2023-02-20T21:15:07.272Z,72.08
2023-02-20T21:17:35.482Z,72.80
2023-02-20T21:20:07.905Z,72.57
2023-02-20T21:22:35.865Z,72.51
2023-02-20T21:25:04.701Z,72.42
2023-02-20T21:27:32.652Z,72.29
2023-02-20T21:30:00.544Z,72.11
2023-02-20T21:32:29.949Z,72.35
2023-02-20T21:34:58.401Z,72.47
2023-02-20T21:37:28.098Z,72.00
2023-02-20T21:39:56.059Z,72.01
2023-02-20T21:42:42.575Z,71.78
2023-02-20T21:45:11.914Z,71.57
2023-02-20T21:47:39.964Z,71.79
2023-02-20T21:50:08.874Z,72.19
2023-02-20T21:52:37.508Z,71.87
2023-02-20T21:55:12.311Z,71.49
2023-02-20T21:57:40.296Z,71.56
2023-02-20T22:00:10.006Z,71.71
2023-02-20T22:02:38.630Z,71.57
2023-02-20T22:05:08.401Z,71.42
2023-02-20T22:07:54.869Z,71.62
2023-02-20T22:10:41.270Z,71.40
2023-02-20T22:13:27.639Z,71.21
2023-02-20T22:16:14.137Z,71.19
2023-02-20T22:19:00.613Z,71.03
2023-02-20T22:21:47.052Z,71.18
2023-02-20T22:24:38.608Z,71.42
2023-02-20T22:27:27.040Z,71.10
2023-02-20T22:30:14.747Z,70.62
2023-02-20T22:33:01.615Z,70.38
2023-02-20T22:35:48.423Z,70.56
2023-02-20T22:38:34.645Z,70.30
2023-02-20T22:41:21.055Z,70.56
2023-02-20T22:44:07.546Z,70.84
2023-02-20T22:46:54.091Z,70.42
2023-02-20T22:49:40.471Z,70.35
2023-02-20T22:52:26.936Z,70.25
2023-02-20T22:55:13.257Z,70.09
2023-02-20T22:57:59.654Z,70.14
2023-02-20T23:00:45.847Z,70.18
2023-02-20T23:03:32.235Z,70.14
2023-02-20T23:06:19.919Z,70.22
2023-02-20T23:09:08.072Z,69.99
2023-02-20T23:11:56.109Z,69.83
2023-02-20T23:14:43.205Z,69.82
2023-02-20T23:17:36.107Z,70.17
2023-02-20T23:20:26.544Z,69.81
2023-02-20T23:23:12.942Z,70.29
2023-02-20T23:25:59.648Z,70.72
2023-02-20T23:28:45.952Z,70.79
2023-02-20T23:31:32.968Z,70.48
2023-02-20T23:34:19.555Z,70.37
2023-02-20T23:37:07.395Z,70.50
2023-02-20T23:39:53.830Z,70.42
2023-02-20T23:42:40.866Z,70.96
2023-02-20T23:45:28.350Z,70.55
2023-02-20T23:48:14.789Z,70.24
2023-02-20T23:51:01.256Z,70.24
2023-02-20T23:53:47.693Z,70.13
2023-02-20T23:56:34.096Z,70.28
2023-02-20T23:59:20.612Z,70.26
